< < Back
Terminal Aerodrome Forecast


Current Version              Previous Versions:   1  2  3  4  5  6  7  8  9  

Terminal Aerodrome Forecast

585
FTUS42 KGSP 010500
TAFAVL
TAF
KAVL 010538Z 0106/0206 00000KT P6SM SKC
     FM010800 00000KT 5SM BR SCT008
     FM011000 00000KT 3SM BR SCT005
      TEMPO 0110/0113 1SM BR BKN005
     FM011400 00000KT P6SM BKN015
     FM011500 34005KT P6SM SCT060
     FM012200 17005KT P6SM FEW060=



Latest METAR

721
SAUS70 KWBC 011800 RRX
MTRAVL
METAR KAVL 011754Z 20004KT 10SM BKN045 24/13 A3005 RMK AO2 SLP156
T02390133 10250 20111 58015


USA.gov is the U.S. government's official web portal to all federal, state and local government web resources and services.